Time;durP1;ratioP1;P1;durP2;ratioP2;P2;SDS_P1;SDS_P2;PMS_P1;PMS_P2;Temp;Humidity;BMP_temperature;BMP_pressure;BME280_temperature;BME280_humidity;BME280_pressure;Samples;Min_cycle;Max_cycle;Signal;HPM_P1;HPM_P2
2021/10/21 00:00:40;;;;;;;0.10;0.10;;;;;;;16.77;71.29;98770.28;5075933;28;20041;-88
2021/10/21 00:03:16;;;;;;;0.10;0.10;;;;;;;16.73;71.88;98752.75;5107985;22;20093;-93
2021/10/21 00:08:31;;;;;;;0.05;0.05;;;;;;;16.92;71.39;98752.19;5101266;22;20061;-96
2021/10/21 00:10:57;;;;;;;0.10;0.10;;;;;;;16.95;71.90;98735.03;5076309;28;20074;-96
2021/10/21 00:13:24;;;;;;;0.20;0.20;;;;;;;17.03;71.52;98735.25;5068677;28;20059;-96
2021/10/21 00:15:55;;;;;;;0.00;0.00;;;;;;;17.02;71.84;98693.41;5082686;28;20041;-96
2021/10/21 00:18:22;;;;;;;0.20;0.20;;;;;;;17.13;71.21;98696.09;5052690;28;20051;-95
2021/10/21 00:20:48;;;;;;;0.10;0.10;;;;;;;17.12;71.34;98675.66;5065293;28;20032;-94
2021/10/21 00:23:14;;;;;;;0.20;0.20;;;;;;;17.23;71.13;98660.53;5071079;28;20074;-94
2021/10/21 00:25:41;;;;;;;0.30;0.30;;;;;;;17.27;70.77;98651.28;5073966;28;20040;-93
2021/10/21 00:28:12;;;;;;;0.10;0.10;;;;;;;17.24;71.11;98632.81;5078993;28;20111;-96
2021/10/21 00:30:40;;;;;;;0.20;0.20;;;;;;;17.25;70.64;98611.28;5053173;28;20113;-96
2021/10/21 00:33:07;;;;;;;0.10;0.10;;;;;;;17.26;70.32;98614.81;5069759;28;20479;-95
2021/10/21 00:35:33;;;;;;;0.10;0.10;;;;;;;17.12;70.87;98725.63;5068559;28;20391;-95
2021/10/21 00:38:00;;;;;;;0.47;0.47;;;;;;;17.03;70.15;98729.06;5186935;22;20047;-95
2021/10/21 00:40:26;;;;;;;0.40;0.40;;;;;;;16.60;67.02;98725.31;5049992;28;20035;-94
2021/10/21 00:42:53;;;;;;;0.20;0.20;;;;;;;15.89;67.03;98725.41;5044043;28;20078;-96
2021/10/21 00:45:19;;;;;;;0.10;0.10;;;;;;;15.25;67.51;98738.06;5046876;28;20050;-96
2021/10/21 00:47:46;;;;;;;0.10;0.10;;;;;;;15.17;67.61;98751.97;5050007;28;20140;-92
2021/10/21 00:50:13;;;;;;;0.10;0.10;;;;;;;14.97;68.73;98756.09;5043805;28;20391;-95
2021/10/21 00:52:39;;;;;;;0.10;0.10;;;;;;;14.83;69.00;98746.41;5046513;28;20468;-96
2021/10/21 00:55:08;;;;;;;0.10;0.10;;;;;;;14.65;69.22;98745.06;5044624;28;20021;-92
2021/10/21 00:57:36;;;;;;;0.10;0.10;;;;;;;14.57;69.60;98733.09;5043848;28;20025;-95
2021/10/21 01:00:09;;;;;;;0.10;0.10;;;;;;;14.64;69.76;98722.00;5041892;28;20031;-95
2021/10/21 01:02:36;;;;;;;0.10;0.10;;;;;;;14.65;69.71;98737.06;5037808;28;20040;-94
2021/10/21 01:05:03;;;;;;;0.10;0.10;;;;;;;14.51;70.16;98725.53;5041696;28;20028;-88
2021/10/21 01:07:30;;;;;;;0.10;0.10;;;;;;;14.57;69.64;98734.91;5043371;28;20068;-92
2021/10/21 01:09:57;;;;;;;1.20;1.20;;;;;;;14.50;69.23;98730.97;5042582;28;20022;-95
2021/10/21 01:12:24;;;;;;;0.10;0.10;;;;;;;14.54;68.31;98732.44;5044245;28;20029;-95
2021/10/21 01:14:50;;;;;;;0.03;0.03;;;;;;;14.60;68.09;98726.69;5044739;28;20025;-93
2021/10/21 01:17:17;;;;;;;0.10;0.10;;;;;;;14.37;68.79;98757.63;5047539;28;20071;-93
2021/10/21 01:19:44;;;;;;;0.10;0.10;;;;;;;14.45;68.04;98749.94;5043394;28;20477;-93
2021/10/21 01:22:11;;;;;;;0.10;0.10;;;;;;;14.40;67.48;98726.28;5038006;28;20025;-92
2021/10/21 01:24:38;;;;;;;0.10;0.10;;;;;;;14.49;66.54;98732.78;5042458;28;20092;-92
2021/10/21 01:27:04;;;;;;;0.10;0.10;;;;;;;14.37;66.49;98720.31;5048135;28;20037;-93
2021/10/21 01:29:31;;;;;;;0.10;0.10;;;;;;;14.41;66.19;98732.47;5040610;28;20033;-92
2021/10/21 01:31:58;;;;;;;0.10;0.10;;;;;;;14.33;65.57;98725.00;5047889;28;20082;-92
2021/10/21 01:34:24;;;;;;;0.10;0.10;;;;;;;14.24;64.20;98737.16;5036189;28;20032;-93
2021/10/21 01:36:53;;;;;;;0.10;0.10;;;;;;;14.40;64.16;98715.63;5049360;28;20380;-91
2021/10/21 01:39:20;;;;;;;0.10;0.10;;;;;;;14.32;64.02;98723.31;5042275;28;20475;-92
2021/10/21 01:41:46;;;;;;;0.10;0.10;;;;;;;14.16;63.41;98731.50;5045340;28;20029;-91
2021/10/21 01:44:13;;;;;;;0.10;0.10;;;;;;;14.22;63.05;98720.41;5047666;28;20036;-90
2021/10/21 01:46:40;;;;;;;0.00;0.00;;;;;;;14.31;63.58;98715.41;5047620;28;20140;-92
2021/10/21 01:49:06;;;;;;;0.10;0.10;;;;;;;14.23;63.32;98746.09;5047076;28;20026;-91
2021/10/21 01:51:33;;;;;;;0.10;0.10;;;;;;;14.20;63.29;98719.66;5048813;28;20029;-92
2021/10/21 01:53:59;;;;;;;0.10;0.10;;;;;;;14.23;63.45;98703.47;5044109;28;20122;-92
2021/10/21 01:56:26;;;;;;;0.00;0.00;;;;;;;14.19;63.44;98712.66;5040849;28;20488;-91
2021/10/21 01:58:52;;;;;;;0.10;0.10;;;;;;;14.19;62.88;98711.78;5041940;28;20022;-91
2021/10/21 02:01:19;;;;;;;0.10;0.10;;;;;;;14.12;63.82;98722.03;5042980;28;20491;-91
2021/10/21 02:03:45;;;;;;;0.10;0.10;;;;;;;14.16;64.15;98706.69;5037214;28;20458;-91
2021/10/21 02:06:12;;;;;;;0.10;0.10;;;;;;;14.11;63.84;98712.31;5048848;28;20052;-91
2021/10/21 02:08:38;;;;;;;0.10;0.10;;;;;;;14.21;64.19;98710.72;5037443;28;20452;-91
2021/10/21 02:11:04;;;;;;;0.20;0.20;;;;;;;13.99;64.97;98706.00;5043113;28;20087;-92
2021/10/21 02:13:31;;;;;;;0.10;0.10;;;;;;;13.80;65.48;98693.13;5037689;28;20481;-92
2021/10/21 02:15:58;;;;;;;0.10;0.10;;;;;;;13.82;66.64;98691.22;5043445;28;20123;-91
2021/10/21 02:18:25;;;;;;;0.10;0.10;;;;;;;13.73;67.22;98695.34;5045444;28;20021;-92
2021/10/21 02:20:51;;;;;;;0.10;0.10;;;;;;;13.62;67.83;98687.25;5041249;28;20491;-92
2021/10/21 02:23:17;;;;;;;0.10;0.10;;;;;;;13.67;67.99;98673.59;5044911;28;20086;-92
2021/10/21 02:25:44;;;;;;;0.10;0.10;;;;;;;13.70;67.73;98668.09;5049035;28;20490;-91
2021/10/21 02:28:10;;;;;;;0.00;0.00;;;;;;;13.67;67.86;98668.28;5040051;28;20056;-92
2021/10/21 02:30:37;;;;;;;0.10;0.10;;;;;;;13.53;68.60;98662.09;5046867;28;20114;-92
2021/10/21 02:33:03;;;;;;;0.10;0.10;;;;;;;13.65;68.27;98656.91;5043512;28;20026;-92
2021/10/21 02:35:30;;;;;;;1.20;1.13;;;;;;;13.64;68.33;98650.72;5037688;28;20380;-93
2021/10/21 02:37:56;;;;;;;0.05;0.05;;;;;;;13.72;68.30;98642.22;5042182;28;20043;-95
2021/10/21 02:40:28;;;;;;;0.10;0.10;;;;;;;13.63;68.82;98651.66;5035109;28;20103;-92
2021/10/21 02:43:04;;;;;;;0.17;0.17;;;;;;;13.73;68.20;98630.59;5047724;28;20511;-94
2021/10/21 02:45:37;;;;;;;0.10;0.10;;;;;;;13.63;68.39;98646.34;5041069;28;20438;-92
2021/10/21 02:48:08;;;;;;;0.10;0.10;;;;;;;13.80;68.11;98626.56;5041561;28;20040;-91
2021/10/21 02:50:35;;;;;;;0.10;0.10;;;;;;;13.84;67.95;98622.72;5043931;28;20102;-91
2021/10/21 02:53:01;;;;;;;0.10;0.10;;;;;;;13.66;68.62;98629.34;5036168;28;20093;-92
2021/10/21 02:55:28;;;;;;;0.10;0.10;;;;;;;13.83;68.60;98630.84;5041660;28;20430;-91
2021/10/21 02:57:54;;;;;;;0.00;0.00;;;;;;;13.78;68.17;98633.81;5037951;28;20053;-92
2021/10/21 03:00:21;;;;;;;0.25;0.25;;;;;;;13.77;68.76;98631.25;5045474;28;20068;-93
2021/10/21 03:02:48;;;;;;;0.10;0.10;;;;;;;13.73;68.95;98626.16;5049540;28;20187;-92
2021/10/21 03:05:14;;;;;;;0.10;0.10;;;;;;;13.77;68.95;98641.91;5040780;28;20037;-93
2021/10/21 03:07:40;;;;;;;0.10;0.10;;;;;;;13.87;68.38;98622.53;5046893;28;20029;-93
2021/10/21 03:10:07;;;;;;;0.10;0.10;;;;;;;13.85;68.78;98615.63;5038062;28;20112;-93
2021/10/21 03:12:34;;;;;;;0.98;0.93;;;;;;;13.91;68.93;98618.69;5039092;28;20033;-92
2021/10/21 03:15:00;;;;;;;0.10;0.10;;;;;;;13.85;68.04;98612.97;5038381;28;20124;-91
2021/10/21 03:17:27;;;;;;;0.10;0.10;;;;;;;13.96;68.54;98620.22;5042772;28;20117;-93
2021/10/21 03:19:53;;;;;;;0.05;0.05;;;;;;;14.00;68.22;98619.88;5041069;28;20072;-92
2021/10/21 03:22:19;;;;;;;0.10;0.10;;;;;;;14.00;68.32;98611.03;5034301;28;20030;-91
2021/10/21 03:24:46;;;;;;;0.10;0.10;;;;;;;14.08;67.95;98616.66;5042458;28;20033;-94
2021/10/21 03:27:12;;;;;;;0.10;0.10;;;;;;;14.11;68.10;98608.47;5042595;28;20024;-92
2021/10/21 03:29:38;;;;;;;0.10;0.10;;;;;;;14.13;67.85;98601.22;5041353;28;20029;-93
2021/10/21 03:32:05;;;;;;;0.10;0.10;;;;;;;14.06;68.18;98622.09;5042364;28;20124;-92
2021/10/21 03:34:33;;;;;;;0.10;0.10;;;;;;;14.18;67.98;98616.88;5045070;28;20120;-93
2021/10/21 03:36:59;;;;;;;0.10;0.10;;;;;;;13.98;67.88;98612.94;5043832;28;20036;-93
2021/10/21 03:39:26;;;;;;;0.08;0.08;;;;;;;13.99;68.21;98636.78;5046097;28;20128;-94
2021/10/21 03:41:52;;;;;;;0.10;0.10;;;;;;;14.16;67.97;98621.47;5043651;28;20026;-94
2021/10/21 03:44:18;;;;;;;0.03;0.03;;;;;;;13.98;68.74;98613.81;5036005;28;20030;-95
2021/10/21 03:46:45;;;;;;;0.10;0.10;;;;;;;14.11;68.57;98618.28;5039373;28;20049;-93
2021/10/21 03:49:11;;;;;;;0.10;0.10;;;;;;;14.15;68.55;98620.59;5044687;28;20038;-94
2021/10/21 03:51:37;;;;;;;0.10;0.10;;;;;;;14.01;68.98;98618.06;5041268;28;20032;-95
2021/10/21 03:54:04;;;;;;;0.10;0.10;;;;;;;14.06;69.40;98618.59;5050426;28;20595;-94
2021/10/21 03:56:30;;;;;;;0.10;0.10;;;;;;;14.12;69.03;98619.97;5046967;28;20048;-95
2021/10/21 03:58:56;;;;;;;0.00;0.00;;;;;;;14.18;68.96;98617.72;5039845;28;20029;-94
2021/10/21 04:01:23;;;;;;;1.52;1.42;;;;;;;14.23;68.72;98628.91;5038061;28;20473;-92
2021/10/21 04:03:49;;;;;;;0.10;0.10;;;;;;;14.20;68.85;98626.44;5047959;28;20033;-94
2021/10/21 04:06:15;;;;;;;0.10;0.10;;;;;;;14.13;69.18;98638.50;5042889;28;20399;-96
2021/10/21 04:08:41;;;;;;;0.10;0.10;;;;;;;14.14;69.13;98655.34;5050269;28;20458;-96
2021/10/21 04:11:07;;;;;;;0.10;0.10;;;;;;;14.28;69.00;98655.22;5046184;28;20060;-96
2021/10/21 04:13:33;;;;;;;0.10;0.10;;;;;;;14.28;69.08;98670.34;5043352;28;20109;-96
2021/10/21 04:16:00;;;;;;;0.10;0.10;;;;;;;14.21;69.05;98673.44;5045505;28;20079;-96
2021/10/21 04:18:26;;;;;;;0.15;0.15;;;;;;;14.17;69.50;98687.94;5045887;28;20108;-96
2021/10/21 04:20:52;;;;;;;0.08;0.08;;;;;;;14.19;69.26;98675.38;5047221;28;20035;-94
2021/10/21 04:23:18;;;;;;;0.10;0.10;;;;;;;14.11;69.64;98695.50;5044133;28;20067;-94
2021/10/21 04:28:38;;;;;;;0.10;0.10;;;;;;;13.97;70.84;98691.09;6120353;22;20016;-96
2021/10/21 04:31:05;;;;;;;0.10;0.10;;;;;;;13.83;70.20;98740.84;5073302;28;20029;-96
2021/10/21 04:33:32;;;;;;;0.10;0.10;;;;;;;13.43;69.06;98716.84;5067038;28;20417;-94
2021/10/21 04:35:58;;;;;;;0.10;0.10;;;;;;;13.24;68.78;98715.38;5067497;28;20036;-95
2021/10/21 04:38:24;;;;;;;0.10;0.10;;;;;;;13.00;69.46;98776.31;5068154;28;20037;-93
2021/10/21 04:40:51;;;;;;;0.10;0.10;;;;;;;13.08;69.81;98813.03;5046622;28;20018;-94
2021/10/21 04:43:17;;;;;;;0.10;0.10;;;;;;;13.06;69.63;98846.81;5048008;28;20041;-95
2021/10/21 04:45:44;;;;;;;0.10;0.10;;;;;;;13.05;70.19;98869.91;5045287;28;20033;-94
2021/10/21 04:48:10;;;;;;;0.10;0.10;;;;;;;13.11;70.50;98884.66;5036980;28;20118;-93
2021/10/21 04:50:36;;;;;;;0.10;0.10;;;;;;;12.89;70.77;98917.84;5041731;28;20022;-95
2021/10/21 04:53:03;;;;;;;0.10;0.10;;;;;;;13.08;69.80;98948.63;5049666;28;20021;-94
2021/10/21 04:55:34;;;;;;;0.10;0.10;;;;;;;13.10;69.44;98968.00;5045301;28;20111;-94
2021/10/21 04:58:02;;;;;;;0.10;0.10;;;;;;;13.02;70.24;98996.84;5044342;28;20052;-95
2021/10/21 05:00:29;;;;;;;0.08;0.08;;;;;;;13.14;70.45;99009.41;5047068;28;20083;-95
2021/10/21 05:02:55;;;;;;;0.00;0.00;;;;;;;13.06;70.32;99052.41;5047528;28;20117;-93
2021/10/21 05:05:22;;;;;;;0.10;0.10;;;;;;;13.05;70.38;99057.84;5046966;28;20092;-93
2021/10/21 05:07:48;;;;;;;0.10;0.10;;;;;;;13.04;70.41;99085.38;5046426;28;20476;-92
2021/10/21 05:10:15;;;;;;;0.10;0.10;;;;;;;13.07;69.64;99125.91;5042760;28;20036;-89
2021/10/21 05:12:41;;;;;;;0.10;0.10;;;;;;;13.03;69.94;99134.16;5041131;28;20059;-96
2021/10/21 05:15:08;;;;;;;0.10;0.10;;;;;;;12.98;70.58;99165.47;5047188;28;20041;-95
2021/10/21 05:17:34;;;;;;;0.10;0.10;;;;;;;12.97;70.18;99169.91;5040777;28;20029;-95
2021/10/21 05:20:01;;;;;;;0.20;0.20;;;;;;;12.91;69.93;99197.72;5039204;28;20188;-96
2021/10/21 05:22:27;;;;;;;0.10;0.10;;;;;;;13.06;69.42;99196.00;5045295;28;20037;-96
2021/10/21 05:24:53;;;;;;;0.10;0.10;;;;;;;13.10;68.58;99231.25;5046768;28;20082;-96
2021/10/21 05:27:19;;;;;;;19.80;2.72;;;;;;;12.94;69.03;99242.72;5051046;28;20033;-95
2021/10/21 05:29:48;;;;;;;0.10;0.10;;;;;;;12.95;67.90;99260.38;5045793;28;20029;-96
2021/10/21 05:32:16;;;;;;;0.10;0.10;;;;;;;12.92;68.00;99267.69;5041022;28;20392;-96
2021/10/21 05:34:45;;;;;;;0.10;0.10;;;;;;;12.95;67.78;99268.38;5045908;28;20044;-95
2021/10/21 05:37:12;;;;;;;0.10;0.10;;;;;;;12.97;67.88;99275.41;5045230;28;20025;-96
2021/10/21 05:39:38;;;;;;;0.10;0.10;;;;;;;13.01;67.47;99306.19;5047309;28;20040;-94
2021/10/21 05:42:05;;;;;;;0.10;0.10;;;;;;;13.08;67.66;99315.53;5041401;28;20029;-94
2021/10/21 05:44:31;;;;;;;0.10;0.10;;;;;;;13.01;67.09;99324.78;5040312;28;20053;-96
2021/10/21 05:46:58;;;;;;;0.10;0.10;;;;;;;12.98;67.35;99330.28;5038916;28;20204;-94
2021/10/21 05:49:24;;;;;;;0.80;0.80;;;;;;;13.04;67.28;99346.75;5042175;28;20043;-95
2021/10/21 05:51:50;;;;;;;1.75;1.65;;;;;;;12.95;67.44;99385.34;5043465;28;20040;-96
2021/10/21 05:54:18;;;;;;;0.10;0.10;;;;;;;13.09;67.22;99397.03;5044346;28;20469;-92
2021/10/21 05:56:45;;;;;;;0.10;0.10;;;;;;;13.01;66.87;99417.84;5035557;28;20374;-95
2021/10/21 05:59:11;;;;;;;0.10;0.10;;;;;;;12.95;67.51;99419.91;5038229;28;20064;-91
2021/10/21 06:01:37;;;;;;;0.10;0.10;;;;;;;12.97;67.25;99435.75;5040583;28;20439;-94
2021/10/21 06:04:03;;;;;;;0.10;0.10;;;;;;;13.16;67.67;99441.00;5046306;28;20453;-86
2021/10/21 06:06:34;;;;;;;0.10;0.10;;;;;;;12.98;67.71;99466.72;5039874;28;20030;-86
2021/10/21 06:09:03;;;;;;;0.10;0.10;;;;;;;13.01;67.37;99477.22;5041847;28;20086;-91
2021/10/21 06:11:29;;;;;;;0.10;0.10;;;;;;;13.21;66.09;99491.28;5044030;28;20033;-89
2021/10/21 06:13:57;;;;;;;0.10;0.10;;;;;;;13.17;64.73;99505.66;5047223;28;20391;-89
2021/10/21 06:16:23;;;;;;;0.10;0.10;;;;;;;13.23;63.48;99529.28;5041687;28;20037;-88
2021/10/21 06:18:49;;;;;;;0.10;0.10;;;;;;;13.36;62.18;99517.06;5042190;28;20361;-88
2021/10/21 06:21:22;;;;;;;0.10;0.10;;;;;;;13.45;61.85;99515.75;5047409;28;20059;-89
2021/10/21 06:23:48;;;;;;;0.10;0.10;;;;;;;13.46;59.47;99537.88;5042009;28;20048;-89
2021/10/21 06:26:17;;;;;;;25.33;3.53;;;;;;;13.45;59.72;99536.19;5041273;28;20033;-89
2021/10/21 06:28:44;;;;;;;0.10;0.10;;;;;;;13.46;60.23;99525.44;5041583;28;20029;-93
2021/10/21 06:31:11;;;;;;;0.10;0.10;;;;;;;13.44;57.56;99548.59;5041613;28;20029;-92
2021/10/21 06:33:37;;;;;;;0.10;0.10;;;;;;;13.53;57.73;99553.47;5042784;28;20040;-89
2021/10/21 06:36:04;;;;;;;0.10;0.10;;;;;;;13.42;56.74;99571.75;5045982;28;20041;-88
2021/10/21 06:38:30;;;;;;;0.90;0.90;;;;;;;13.57;57.67;99599.38;5034475;28;20116;-89
2021/10/21 06:40:56;;;;;;;0.03;0.03;;;;;;;13.48;60.53;99618.50;5048221;28;20029;-89
2021/10/21 06:43:25;;;;;;;0.10;0.10;;;;;;;13.16;62.53;99627.16;5042066;28;20025;-90
2021/10/21 06:45:52;;;;;;;0.00;0.00;;;;;;;13.03;64.22;99644.66;5040372;28;20484;-89
2021/10/21 06:48:18;;;;;;;0.10;0.10;;;;;;;12.89;65.79;99651.50;5049226;28;20102;-89
2021/10/21 06:50:45;;;;;;;0.20;0.20;;;;;;;12.85;66.24;99665.03;5036045;28;20396;-91
2021/10/21 06:53:12;;;;;;;0.10;0.10;;;;;;;12.75;67.17;99694.69;5052689;28;20021;-90
2021/10/21 06:55:38;;;;;;;0.10;0.10;;;;;;;12.59;67.53;99672.44;5042323;28;20061;-91
2021/10/21 06:58:04;;;;;;;0.45;0.45;;;;;;;12.79;67.41;99693.59;5047338;28;20044;-89
2021/10/21 07:00:39;;;;;;;0.10;0.10;;;;;;;12.93;66.19;99700.06;5035957;28;20026;-90
2021/10/21 07:03:05;;;;;;;0.10;0.10;;;;;;;12.86;65.88;99715.47;5045916;28;20172;-90
2021/10/21 07:05:38;;;;;;;0.08;0.08;;;;;;;12.75;65.12;99731.91;5040542;28;20041;-88
2021/10/21 07:08:06;;;;;;;0.10;0.10;;;;;;;12.93;64.65;99743.47;5041695;28;20511;-88
2021/10/21 07:10:33;;;;;;;0.17;0.17;;;;;;;12.83;63.74;99757.28;5039375;28;20029;-89
2021/10/21 07:13:03;;;;;;;0.20;0.20;;;;;;;13.01;62.71;99764.38;5045133;28;20031;-89
2021/10/21 07:15:29;;;;;;;0.03;0.03;;;;;;;12.91;62.19;99779.03;5042740;28;20025;-88
2021/10/21 07:17:58;;;;;;;0.10;0.10;;;;;;;12.95;60.49;99784.13;5040435;28;20030;-90
2021/10/21 07:20:24;;;;;;;0.10;0.10;;;;;;;12.90;60.59;99812.72;5037799;28;20038;-88
2021/10/21 07:22:51;;;;;;;0.90;0.90;;;;;;;12.88;59.98;99790.66;5040326;28;20071;-89
2021/10/21 07:25:18;;;;;;;0.10;0.10;;;;;;;12.93;59.77;99798.44;5048485;28;20084;-90
2021/10/21 07:27:44;;;;;;;0.10;0.10;;;;;;;12.74;59.17;99822.34;5042752;28;20025;-88
2021/10/21 07:30:12;;;;;;;0.10;0.10;;;;;;;12.90;59.04;99827.84;5045436;28;20094;-88
2021/10/21 07:32:38;;;;;;;0.10;0.10;;;;;;;12.95;58.22;99837.31;5043412;28;20059;-90
2021/10/21 07:35:06;;;;;;;0.08;0.08;;;;;;;12.92;58.33;99845.44;5048682;28;20025;-91
2021/10/21 07:37:32;;;;;;;0.10;0.10;;;;;;;12.86;59.14;99863.44;5040981;28;20025;-86
2021/10/21 07:39:58;;;;;;;0.00;0.00;;;;;;;12.85;57.57;99861.75;5053057;28;20021;-90
2021/10/21 07:42:24;;;;;;;0.10;0.10;;;;;;;12.97;57.88;99865.63;5042575;28;20037;-89
2021/10/21 07:44:51;;;;;;;0.10;0.10;;;;;;;12.88;57.29;99870.41;5055827;28;20033;-90
2021/10/21 07:47:18;;;;;;;0.10;0.10;;;;;;;13.27;57.12;99874.84;5056229;28;20484;-89
2021/10/21 07:49:44;;;;;;;0.17;0.17;;;;;;;13.35;56.85;99886.94;5039812;28;20025;-89
2021/10/21 07:52:12;;;;;;;0.95;0.88;;;;;;;13.43;55.85;99895.44;5055926;28;20025;-88
2021/10/21 07:54:38;;;;;;;0.00;0.00;;;;;;;13.62;56.29;99906.09;5047299;28;20040;-86
2021/10/21 07:57:06;;;;;;;0.10;0.10;;;;;;;13.64;55.50;99908.66;5048145;28;20032;-88
2021/10/21 07:59:35;;;;;;;0.10;0.10;;;;;;;13.90;56.93;99910.91;5037206;28;20030;-88
2021/10/21 08:02:02;;;;;;;1.23;0.55;;;;;;;13.84;57.48;99940.50;5038779;28;20021;-88
2021/10/21 08:04:29;;;;;;;1.35;0.52;;;;;;;13.73;58.06;99929.50;5050325;28;20048;-88
2021/10/21 08:06:56;;;;;;;0.03;0.03;;;;;;;13.58;59.53;99934.66;5054221;28;20634;-89
2021/10/21 08:09:24;;;;;;;0.22;0.22;;;;;;;13.44;60.75;99947.72;5037834;28;20079;-88
2021/10/21 08:11:52;;;;;;;0.10;0.10;;;;;;;13.20;61.30;99966.50;5051737;28;20033;-88
2021/10/21 08:14:19;;;;;;;0.10;0.10;;;;;;;13.27;61.76;99961.75;5050363;28;20481;-88
2021/10/21 08:16:46;;;;;;;0.10;0.10;;;;;;;13.26;61.70;99984.00;5047465;28;20431;-88
2021/10/21 08:19:13;;;;;;;0.10;0.10;;;;;;;13.29;61.62;99973.19;5042861;28;20053;-88
2021/10/21 08:21:40;;;;;;;0.10;0.10;;;;;;;13.00;64.06;99982.50;5052566;28;20041;-89
2021/10/21 08:24:08;;;;;;;0.10;0.10;;;;;;;12.83;64.19;99997.38;5039418;28;20499;-88
2021/10/21 08:26:35;;;;;;;0.10;0.10;;;;;;;12.73;64.07;100017.31;5055448;28;20043;-89
2021/10/21 08:29:01;;;;;;;0.10;0.10;;;;;;;12.70;65.08;100004.16;5050703;28;20029;-89
2021/10/21 08:31:30;;;;;;;1.27;1.27;;;;;;;12.52;65.28;100016.41;5040472;28;20480;-84
2021/10/21 08:33:56;;;;;;;0.10;0.10;;;;;;;12.65;66.26;100011.44;5036523;28;20025;-88
2021/10/21 08:36:23;;;;;;;0.10;0.10;;;;;;;12.75;65.67;100012.81;5049660;28;20040;-89
2021/10/21 08:38:51;;;;;;;0.10;0.10;;;;;;;12.75;66.42;100021.63;5042798;28;20029;-92
2021/10/21 08:41:24;;;;;;;0.95;0.95;;;;;;;12.76;66.68;100026.00;5048676;28;20032;-90
2021/10/21 08:43:54;;;;;;;3.38;3.17;;;;;;;12.81;67.11;100031.16;5037899;28;20142;-91
2021/10/21 08:46:30;;;;;;;0.30;0.30;;;;;;;12.83;67.11;100029.25;5049052;28;20029;-92
2021/10/21 08:48:59;;;;;;;0.10;0.10;;;;;;;12.81;68.35;100040.91;5045651;28;20463;-92
2021/10/21 08:51:27;;;;;;;0.10;0.10;;;;;;;12.76;68.70;100031.34;5040798;28;20029;-91
2021/10/21 08:53:54;;;;;;;0.10;0.10;;;;;;;12.93;68.13;100035.94;5051156;28;20487;-88
2021/10/21 08:56:25;;;;;;;0.10;0.10;;;;;;;12.98;68.42;100032.22;5040501;28;20075;-89
2021/10/21 08:58:54;;;;;;;0.15;0.15;;;;;;;12.85;68.00;100038.06;5052988;28;20040;-88
2021/10/21 09:01:30;;;;;;;0.10;0.10;;;;;;;12.99;67.48;100053.41;5040850;28;20430;-90
2021/10/21 09:09:41;;;;;;;0.10;0.10;;;;;;;13.22;67.17;100063.06;5059909;27;20448;-93
2021/10/21 09:12:09;;;;;;;;;;;;;;;13.45;66.90;100069.19;5046836;28;20112;-88
2021/10/21 09:14:41;;;;;;;0.10;0.10;;;;;;;13.17;67.42;100082.81;5055897;28;20387;-87
2021/10/21 09:17:09;;;;;;;0.83;0.83;;;;;;;13.29;67.59;100084.94;5057424;28;20423;-91
2021/10/21 09:19:37;;;;;;;0.10;0.10;;;;;;;13.33;67.31;100080.34;5059777;28;20407;-87
2021/10/21 09:22:07;;;;;;;0.10;0.10;;;;;;;13.48;66.93;100095.66;5050071;28;20545;-91
2021/10/21 09:24:41;;;;;;;0.10;0.10;;;;;;;13.46;67.04;100123.28;5049188;28;20025;-89
2021/10/21 09:29:51;;;;;;;0.10;0.10;;;;;;;13.51;66.10;100110.66;5065210;27;20435;-87
2021/10/21 09:32:23;;;;;;;0.00;0.00;;;;;;;13.62;65.85;100113.72;5047882;28;20108;-88
2021/10/21 09:37:47;;;;;;;1.67;1.58;;;;;;;13.80;65.07;100100.50;5099764;27;20448;-88
2021/10/21 09:43:15;;;;;;;0.10;0.10;;;;;;;14.00;64.62;100120.88;5087207;27;20404;-90
2021/10/21 09:46:33;;;;;;;0.10;0.10;;;;;;;14.01;63.43;100122.63;5085633;28;20534;-89
2021/10/21 09:49:39;;;;;;;0.85;0.85;;;;;;;13.76;64.33;100150.34;5021238;28;20053;-89
2021/10/21 09:52:58;;;;;;;0.10;0.10;;;;;;;13.61;64.71;100149.22;4999134;28;20378;-92
2021/10/21 09:55:56;;;;;;;0.20;0.20;;;;;;;13.75;64.32;100161.94;5047030;28;20033;-92
2021/10/21 10:00:17;;;;;;;0.10;0.10;;;;;;;13.61;64.05;100164.31;5048017;28;20076;-91
2021/10/21 10:02:15;;;;;;;;;;;;;;;;;;;;;
2021/10/21 10:05:01;;;;;;;0.10;0.10;;;;;;;13.83;62.62;100181.09;5054098;28;20030;-89
2021/10/21 10:07:42;;;;;;;0.03;0.03;;;;;;;13.66;60.76;100183.66;5068107;28;20032;-90
2021/10/21 10:10:46;;;;;;;0.10;0.10;;;;;;;13.89;61.17;100186.16;5068757;28;20090;-91
2021/10/21 10:17:58;;;;;;;;;;;;;;;;;;;;;
2021/10/21 10:20:58;;;;;;;0.10;0.10;;;;;;;14.31;59.08;100186.09;4910077;29;20405;-91
2021/10/21 10:24:24;;;;;;;0.10;0.10;;;;;;;14.60;57.94;100166.03;4994763;28;20335;-91
2021/10/21 10:27:22;;;;;;;0.10;0.10;;;;;;;14.69;56.71;100191.44;4941359;28;20128;-91
2021/10/21 10:30:15;;;;;;;0.10;0.10;;;;;;;14.81;56.91;100190.84;4947958;28;20064;-90
2021/10/21 10:33:05;;;;;;;0.93;0.85;;;;;;;14.66;57.49;100204.94;5012369;28;20042;-92
2021/10/21 10:35:52;;;;;;;0.10;0.10;;;;;;;14.65;55.59;100195.19;5011542;28;20026;-92
2021/10/21 10:38:40;;;;;;;0.00;0.00;;;;;;;14.44;55.08;100203.22;5027333;28;20029;-91
2021/10/21 10:41:06;;;;;;;0.10;0.10;;;;;;;14.66;55.69;100203.13;5010767;28;20038;-90
2021/10/21 10:43:41;;;;;;;0.10;0.10;;;;;;;14.72;55.71;100207.31;5008845;28;20117;-93
2021/10/21 10:46:10;;;;;;;0.10;0.10;;;;;;;14.77;55.67;100237.28;5008705;28;20078;-92
2021/10/21 10:50:35;;;;;;;0.10;0.10;;;;;;;14.68;59.02;100285.72;5009424;28;20026;-93
2021/10/21 10:53:03;;;;;;;0.10;0.10;;;;;;;14.10;61.35;100298.00;4987803;28;20034;-92
2021/10/21 10:58:40;;;;;;;0.10;0.10;;;;;;;13.49;65.02;100331.59;5070272;28;20470;-96
2021/10/21 11:02:03;;;;;;;0.10;0.10;;;;;;;13.46;64.66;100345.03;5029650;28;20030;-95
2021/10/21 11:05:07;;;;;;;0.10;0.10;;;;;;;13.18;64.73;100380.66;4988749;28;20030;-95
2021/10/21 11:08:12;;;;;;;0.40;0.40;;;;;;;13.10;64.45;100386.28;4988937;28;20625;-92
2021/10/21 12:12:55;;;;;;;;;;;;;;;;;;;;;
2021/10/21 12:15:46;;;;;;;;;;;;;;;;;;;;;
2021/10/21 12:21:07;;;;;;;0.10;0.10;;;;;;;13.72;63.13;100501.06;3307520;23;20051;-87
2021/10/21 12:43:17;;;;;;;0.10;0.10;;;;;;;14.04;57.25;100569.97;4928015;23;20044;-91
2021/10/21 12:58:29;;;;;;;0.10;0.10;;;;;;;13.89;58.03;100644.22;5687328;23;20060;-90
2021/10/21 13:01:44;;;;;;;0.10;0.10;;;;;;;13.90;58.09;100664.56;4900003;29;20037;-94
2021/10/21 13:04:10;;;;;;;0.10;0.10;;;;;;;13.71;59.62;100668.84;4915432;29;20491;-84
2021/10/21 13:11:48;;;;;;;0.10;0.10;;;;;;;13.77;60.10;100662.44;5511051;23;20404;-85
2021/10/21 13:35:17;;;;;;;0.10;0.10;;;;;;;14.53;57.82;100703.97;4953673;23;20052;-89
2021/10/21 13:37:43;;;;;;;0.10;0.10;;;;;;;14.52;57.27;100707.56;4917855;29;20506;-85
2021/10/21 13:40:09;;;;;;;0.10;0.10;;;;;;;14.64;58.28;100722.25;4917673;29;20036;-86
2021/10/21 14:12:45;;;;;;;0.10;0.10;;;;;;;13.65;53.12;100811.03;5156262;23;20115;-92
2021/10/21 14:15:14;;;;;;;3.17;2.92;;;;;;;13.55;52.54;100810.47;4917536;29;20059;-89
2021/10/21 14:17:40;;;;;;;0.10;0.10;;;;;;;13.53;53.15;100827.41;4917461;29;20126;-87
2021/10/21 14:20:16;;;;;;;0.20;0.20;;;;;;;13.56;53.31;100828.19;4917690;29;20036;-91
2021/10/21 14:22:47;;;;;;;0.45;0.45;;;;;;;13.76;54.43;100829.31;4917628;29;20368;-91
2021/10/21 14:25:53;;;;;;;;;;;;;;;;;;;;;
2021/10/21 14:39:15;;;;;;;0.10;0.10;;;;;;;14.26;48.40;100875.59;5258619;23;21727;-88
2021/10/21 14:44:32;;;;;;;0.55;0.55;;;;;;;14.12;44.57;100898.25;5132826;23;20071;-87
2021/10/21 14:46:59;;;;;;;0.10;0.10;;;;;;;14.27;45.97;100896.88;4917195;29;21064;-88
2021/10/21 14:49:26;;;;;;;0.10;0.10;;;;;;;14.22;44.47;100891.69;4917164;29;20081;-85
2021/10/21 14:51:52;;;;;;;0.03;0.03;;;;;;;14.34;45.62;100890.41;4917179;29;20032;-85
2021/10/21 14:54:54;;;;;;;1.60;1.50;;;;;;;14.33;45.33;100906.41;4917251;29;20070;-93
2021/10/21 14:57:34;;;;;;;0.10;0.10;;;;;;;14.52;45.98;100912.84;4913135;29;20059;-90
2021/10/21 15:00:02;;;;;;;0.00;0.00;;;;;;;14.55;46.71;100925.22;4987329;23;20043;-87
2021/10/21 15:02:57;;;;;;;5.05;0.95;;;;;;;14.59;44.68;100925.97;4918136;29;20070;-93
2021/10/21 15:05:27;;;;;;;0.20;0.20;;;;;;;14.57;46.37;100929.56;4918992;29;20343;-91
2021/10/21 15:08:10;;;;;;;1.10;1.00;;;;;;;14.40;46.72;100943.50;4901972;29;20124;-86